createdAt,value
2017-12-22T00:00:12.773Z,6.12
2017-12-22T00:01:12.751Z,6.12
2017-12-22T00:02:12.828Z,6.16
2017-12-22T00:03:12.704Z,6.14
2017-12-22T00:04:12.681Z,6.19
2017-12-22T00:05:12.659Z,6.14
2017-12-22T00:06:12.637Z,6.16
2017-12-22T00:07:12.614Z,6.02
2017-12-22T00:08:12.591Z,6.19
2017-12-22T00:09:12.567Z,6.12
2017-12-22T00:10:12.553Z,6.14
2017-12-22T00:11:12.522Z,6.12
2017-12-22T00:12:12.751Z,6.14
2017-12-22T00:13:12.477Z,6.14
2017-12-22T00:14:12.455Z,6.16
2017-12-22T00:15:12.432Z,6.16
2017-12-22T00:16:12.408Z,6.19
2017-12-22T00:17:12.385Z,6.20
2017-12-22T00:18:12.361Z,6.14
2017-12-22T00:19:12.340Z,6.16
2017-12-22T00:20:12.416Z,6.14
2017-12-22T00:21:12.294Z,6.19
2017-12-22T00:22:12.271Z,6.12
2017-12-22T00:23:12.252Z,6.11
2017-12-22T00:24:12.225Z,6.16
2017-12-22T00:25:12.203Z,6.09
2017-12-22T00:26:12.180Z,6.17
2017-12-22T00:27:12.156Z,6.12
2017-12-22T00:28:12.133Z,6.16
2017-12-22T00:29:12.111Z,6.16
2017-12-22T00:30:12.089Z,6.16
2017-12-22T00:31:12.215Z,6.11
2017-12-22T00:32:12.043Z,6.04
2017-12-22T00:33:12.018Z,6.16
2017-12-22T00:34:11.998Z,6.19
2017-12-22T00:35:11.973Z,6.16
2017-12-22T00:36:11.950Z,6.14
2017-12-22T00:37:11.936Z,6.17
2017-12-22T00:38:11.907Z,6.16
2017-12-22T00:39:11.883Z,6.12
2017-12-22T00:40:11.860Z,6.14
2017-12-22T00:41:11.837Z,6.05
2017-12-22T00:42:11.815Z,6.14
2017-12-22T00:43:11.791Z,6.17
2017-12-22T00:44:11.768Z,6.20
2017-12-22T00:45:11.748Z,6.14
2017-12-22T00:46:11.724Z,6.05
2017-12-22T00:47:11.701Z,6.07
2017-12-22T00:48:11.678Z,6.17
2017-12-22T00:49:11.655Z,6.17
2017-12-22T00:50:11.632Z,6.14
2017-12-22T00:51:11.711Z,6.16
2017-12-22T00:52:11.587Z,6.19
2017-12-22T00:53:11.564Z,6.12
2017-12-22T00:54:11.541Z,6.22
2017-12-22T00:55:11.518Z,6.14
2017-12-22T00:56:11.495Z,6.14
2017-12-22T00:57:11.473Z,6.19
2017-12-22T00:58:11.450Z,6.08
2017-12-22T00:59:11.429Z,6.16
2017-12-22T01:00:11.408Z,6.22
2017-12-22T01:01:11.383Z,6.16
2017-12-22T01:02:11.363Z,6.22
2017-12-22T01:03:11.337Z,6.22
2017-12-22T01:04:11.314Z,6.22
2017-12-22T01:05:11.292Z,6.19
2017-12-22T01:06:11.517Z,6.16
2017-12-22T01:07:11.246Z,6.05
2017-12-22T01:08:11.223Z,6.11
2017-12-22T01:09:11.199Z,6.16
2017-12-22T01:10:11.176Z,6.11
2017-12-22T01:11:11.154Z,6.19
2017-12-22T01:12:11.131Z,6.19
2017-12-22T01:13:11.108Z,6.08
2017-12-22T01:14:11.085Z,6.17
2017-12-22T01:15:11.063Z,6.11
2017-12-22T01:16:11.038Z,6.08
2017-12-22T01:17:11.017Z,6.17
2017-12-22T01:18:10.993Z,6.04
2017-12-22T01:19:10.971Z,6.02
2017-12-22T01:20:10.948Z,6.07
2017-12-22T01:21:10.925Z,6.09
2017-12-22T01:22:10.902Z,6.09
2017-12-22T01:23:10.879Z,6.09
2017-12-22T01:24:11.106Z,6.08
2017-12-22T01:25:10.833Z,6.07
2017-12-22T01:26:10.811Z,6.11
2017-12-22T01:27:10.788Z,6.04
2017-12-22T01:28:10.763Z,6.05
2017-12-22T01:29:10.740Z,6.01
2017-12-22T01:30:10.717Z,6.04
2017-12-22T01:31:10.695Z,6.12
2017-12-22T01:32:10.672Z,5.98
2017-12-22T01:33:10.648Z,6.02
2017-12-22T01:34:10.627Z,6.05
2017-12-22T01:35:10.603Z,6.07
2017-12-22T01:36:10.579Z,6.02
2017-12-22T01:37:10.556Z,6.02
2017-12-22T01:38:10.633Z,6.04
2017-12-22T01:39:10.512Z,6.05
2017-12-22T01:40:10.487Z,5.99
2017-12-22T01:41:10.465Z,6.05
2017-12-22T01:42:10.441Z,6.08
2017-12-22T01:43:10.418Z,6.07
2017-12-22T01:44:10.395Z,6.01
2017-12-22T01:45:10.374Z,6.04
2017-12-22T01:46:10.351Z,6.05
2017-12-22T01:47:10.327Z,6.08
2017-12-22T01:48:10.354Z,6.11
2017-12-22T01:49:10.280Z,6.05
2017-12-22T01:50:10.257Z,6.08
2017-12-22T01:51:10.237Z,5.98
2017-12-22T01:52:10.212Z,6.09
2017-12-22T01:53:10.189Z,6.04
2017-12-22T01:54:10.165Z,6.05
2017-12-22T01:55:10.143Z,6.07
2017-12-22T01:56:10.119Z,6.07
2017-12-22T01:57:10.097Z,6.08
2017-12-22T01:58:10.073Z,6.02
2017-12-22T01:59:10.050Z,6.07
2017-12-22T02:00:10.027Z,6.04
2017-12-22T02:01:10.004Z,6.01
2017-12-22T02:02:09.982Z,6.04
2017-12-22T02:03:09.959Z,6.08
2017-12-22T02:04:10.189Z,6.09
2017-12-22T02:05:09.912Z,6.05
2017-12-22T02:06:09.890Z,6.09
2017-12-22T02:07:09.867Z,6.07
2017-12-22T02:08:09.843Z,6.01
2017-12-22T02:09:09.819Z,6.08
2017-12-22T02:10:09.799Z,6.05
2017-12-22T02:11:09.775Z,6.05
2017-12-22T02:12:09.751Z,6.07
2017-12-22T02:13:09.729Z,6.08
2017-12-22T02:14:09.706Z,6.04
2017-12-22T02:15:09.686Z,6.05
2017-12-22T02:16:09.659Z,6.05
2017-12-22T02:17:09.638Z,6.08
2017-12-22T02:18:09.614Z,5.99
2017-12-22T02:19:09.592Z,5.98
2017-12-22T02:20:09.568Z,6.01
2017-12-22T02:21:09.545Z,5.94
2017-12-22T02:22:09.772Z,5.93
2017-12-22T02:23:09.500Z,5.94
2017-12-22T02:24:09.477Z,5.93
2017-12-22T02:25:09.454Z,5.93
2017-12-22T02:26:09.430Z,5.93
2017-12-22T02:27:09.408Z,5.91
2017-12-22T02:28:09.384Z,5.97
2017-12-22T02:29:09.361Z,5.91
2017-12-22T02:30:09.339Z,5.98
2017-12-22T02:31:09.316Z,5.94
2017-12-22T02:32:09.442Z,6.08
2017-12-22T02:33:09.271Z,5.91
2017-12-22T02:34:09.248Z,6.01
2017-12-22T02:35:09.224Z,5.89
2017-12-22T02:36:09.200Z,5.91
2017-12-22T02:37:09.177Z,5.99
2017-12-22T02:38:09.154Z,5.98
2017-12-22T02:39:09.131Z,6.02
2017-12-22T02:40:09.108Z,5.91
2017-12-22T02:41:09.087Z,5.98
2017-12-22T02:42:09.062Z,5.98
2017-12-22T02:43:09.289Z,5.99
2017-12-22T02:44:09.017Z,5.94
2017-12-22T02:45:08.993Z,5.93
2017-12-22T02:46:08.974Z,5.94
2017-12-22T02:47:08.949Z,5.90
2017-12-22T02:48:08.926Z,5.91
2017-12-22T02:49:08.903Z,6.05
2017-12-22T02:50:08.885Z,5.93
2017-12-22T02:51:09.007Z,5.93
2017-12-22T02:52:08.834Z,5.98
2017-12-22T02:53:08.810Z,5.83
2017-12-22T02:54:08.787Z,5.93
2017-12-22T02:55:08.766Z,5.90
2017-12-22T02:56:08.743Z,5.91
2017-12-22T02:57:08.720Z,5.97
2017-12-22T02:58:08.696Z,5.91
2017-12-22T02:59:08.672Z,5.87
2017-12-22T03:00:08.650Z,5.93
2017-12-22T03:01:08.626Z,5.79
2017-12-22T03:02:08.603Z,5.87
2017-12-22T03:03:08.582Z,5.86
2017-12-22T03:04:08.557Z,5.87
2017-12-22T03:05:08.534Z,5.83
2017-12-22T03:06:08.512Z,5.87
2017-12-22T03:07:08.489Z,5.82
2017-12-22T03:08:08.466Z,5.76
2017-12-22T03:09:08.442Z,5.76
2017-12-22T03:10:08.419Z,5.86
2017-12-22T03:11:08.397Z,5.86
2017-12-22T03:12:08.373Z,5.87
2017-12-22T03:13:08.350Z,5.87
2017-12-22T03:14:08.328Z,5.89
2017-12-22T03:15:08.305Z,5.82
2017-12-22T03:16:08.282Z,5.89
2017-12-22T03:17:08.259Z,5.90
2017-12-22T03:18:08.235Z,5.94
2017-12-22T03:19:08.463Z,5.80
2017-12-22T03:20:08.189Z,5.83
2017-12-22T03:21:08.167Z,5.90
2017-12-22T03:22:08.144Z,5.82
2017-12-22T03:23:08.121Z,5.79
2017-12-22T03:24:08.096Z,5.84
2017-12-22T03:25:08.075Z,5.84
2017-12-22T03:26:08.050Z,5.86
2017-12-22T03:27:08.028Z,5.84
2017-12-22T03:28:08.004Z,5.89
2017-12-22T03:29:07.982Z,5.83
2017-12-22T03:30:07.961Z,5.83
2017-12-22T03:31:07.938Z,5.79
2017-12-22T03:32:07.911Z,5.82
2017-12-22T03:33:07.888Z,5.76
2017-12-22T03:34:07.866Z,5.76
2017-12-22T03:35:07.842Z,5.84
2017-12-22T03:36:07.818Z,5.76
2017-12-22T03:37:07.795Z,5.79
2017-12-22T03:38:07.772Z,5.82
2017-12-22T03:39:07.750Z,5.73
2017-12-22T03:40:07.725Z,5.84
2017-12-22T03:41:07.701Z,5.80
2017-12-22T03:42:07.679Z,5.82
2017-12-22T03:43:07.655Z,5.79
2017-12-22T03:44:07.631Z,5.75
2017-12-22T03:45:07.608Z,5.82
2017-12-22T03:46:07.584Z,5.79
2017-12-22T03:47:07.562Z,5.83
2017-12-22T03:48:07.538Z,5.80
2017-12-22T03:49:07.515Z,5.82
2017-12-22T03:50:07.493Z,5.75
2017-12-22T03:51:07.471Z,5.79
2017-12-22T03:52:07.445Z,5.75
2017-12-22T03:53:07.423Z,5.72
2017-12-22T03:54:07.403Z,5.79
2017-12-22T03:55:07.376Z,5.75
2017-12-22T03:56:07.353Z,5.76
2017-12-22T03:57:07.329Z,5.72
2017-12-22T03:58:07.306Z,5.79
2017-12-22T03:59:07.284Z,5.79
2017-12-22T04:00:07.259Z,5.71
2017-12-22T04:01:07.236Z,5.68
2017-12-22T04:02:07.464Z,5.76
2017-12-22T04:03:07.191Z,5.72
2017-12-22T04:04:07.166Z,5.72
2017-12-22T04:05:07.144Z,5.61
2017-12-22T04:06:07.121Z,5.66
2017-12-22T04:07:07.098Z,5.72
2017-12-22T04:08:07.073Z,5.62
2017-12-22T04:09:07.051Z,5.64
2017-12-22T04:10:07.030Z,5.56
2017-12-22T04:11:07.054Z,5.59
2017-12-22T04:12:06.980Z,5.68
2017-12-22T04:13:06.962Z,5.68
2017-12-22T04:14:06.935Z,5.72
2017-12-22T04:15:06.911Z,5.68
2017-12-22T04:16:06.886Z,5.68
2017-12-22T04:17:06.868Z,5.64
2017-12-22T04:18:06.842Z,5.59
2017-12-22T04:19:06.819Z,5.65
2017-12-22T04:20:06.793Z,5.59
2017-12-22T04:21:07.022Z,5.66
2017-12-22T04:22:06.748Z,5.66
2017-12-22T04:23:06.726Z,5.68
2017-12-22T04:24:06.702Z,5.57
2017-12-22T04:25:06.679Z,5.66
2017-12-22T04:26:06.655Z,5.62
2017-12-22T04:27:06.632Z,5.61
2017-12-22T04:28:06.609Z,5.68
2017-12-22T04:29:06.686Z,5.69
2017-12-22T04:30:06.567Z,5.72
2017-12-22T04:31:06.540Z,5.65
2017-12-22T04:32:06.517Z,5.66
2017-12-22T04:33:06.493Z,5.72
2017-12-22T04:34:06.471Z,5.66
2017-12-22T04:35:06.446Z,5.71
2017-12-22T04:36:06.424Z,5.72
2017-12-22T04:37:06.400Z,5.69
2017-12-22T04:38:06.377Z,5.71
2017-12-22T04:39:06.605Z,5.71
2017-12-22T04:40:06.330Z,5.69
2017-12-22T04:41:06.307Z,5.72
2017-12-22T04:42:06.285Z,5.69
2017-12-22T04:43:06.261Z,5.65
2017-12-22T04:44:06.238Z,5.72
2017-12-22T04:45:06.470Z,5.64
2017-12-22T04:46:06.191Z,5.59
2017-12-22T04:47:06.169Z,5.61
2017-12-22T04:48:06.145Z,5.65
2017-12-22T04:49:06.122Z,5.62
2017-12-22T04:50:06.200Z,5.57
2017-12-22T04:51:06.078Z,5.61
2017-12-22T04:52:06.055Z,5.56
2017-12-22T04:53:06.038Z,5.56
2017-12-22T04:54:06.006Z,5.61
2017-12-22T04:55:06.235Z,5.64
2017-12-22T04:56:05.961Z,5.57
2017-12-22T04:57:05.938Z,5.65
2017-12-22T04:58:05.914Z,5.68
2017-12-22T04:59:05.891Z,5.59
2017-12-22T05:00:05.970Z,5.57
2017-12-22T05:01:05.845Z,5.68
2017-12-22T05:02:05.823Z,5.64
2017-12-22T05:03:05.799Z,5.65
2017-12-22T05:04:05.776Z,5.64
2017-12-22T05:05:05.753Z,5.56
2017-12-22T05:06:05.730Z,5.64
2017-12-22T05:07:05.707Z,5.65
2017-12-22T05:08:05.683Z,5.62
2017-12-22T05:09:05.660Z,5.57
2017-12-22T05:10:05.637Z,5.66
2017-12-22T05:11:05.613Z,5.65
2017-12-22T05:12:05.591Z,5.66
2017-12-22T05:13:05.568Z,5.66
2017-12-22T05:14:05.545Z,5.65
2017-12-22T05:15:05.522Z,5.59
2017-12-22T05:16:05.501Z,5.61
2017-12-22T05:17:05.475Z,5.59
2017-12-22T05:18:05.451Z,5.66
2017-12-22T05:19:05.429Z,5.59
2017-12-22T05:20:05.410Z,5.68
2017-12-22T05:21:05.383Z,5.71
2017-12-22T05:22:05.362Z,5.62
2017-12-22T05:23:05.339Z,5.59
2017-12-22T05:24:05.317Z,5.66
2017-12-22T05:25:05.291Z,5.57
2017-12-22T05:26:05.278Z,5.57
2017-12-22T05:27:05.245Z,5.66
2017-12-22T05:28:05.221Z,5.66
2017-12-22T05:29:05.199Z,5.72
2017-12-22T05:30:05.176Z,5.68
2017-12-22T05:31:05.157Z,5.64
2017-12-22T05:32:05.130Z,5.68
2017-12-22T05:33:05.107Z,5.68
2017-12-22T05:34:05.092Z,5.69
2017-12-22T05:35:05.063Z,5.75
2017-12-22T05:36:05.039Z,5.69
2017-12-22T05:37:05.017Z,5.71
2017-12-22T05:38:04.994Z,5.69
2017-12-22T05:39:04.972Z,5.72
2017-12-22T05:40:04.948Z,5.68
2017-12-22T05:41:04.926Z,5.57
2017-12-22T05:42:04.903Z,5.59
2017-12-22T05:43:04.880Z,5.57
2017-12-22T05:44:04.856Z,5.56
2017-12-22T05:45:04.835Z,5.61
2017-12-22T05:46:04.813Z,5.65
2017-12-22T05:47:04.790Z,5.65
2017-12-22T05:48:04.766Z,5.71
2017-12-22T05:49:04.743Z,5.54
2017-12-22T05:50:04.721Z,5.66
2017-12-22T05:51:04.697Z,5.64
2017-12-22T05:52:04.681Z,5.53
2017-12-22T05:53:04.652Z,5.53
2017-12-22T05:54:04.629Z,5.61
2017-12-22T05:55:04.607Z,5.54
2017-12-22T05:56:04.582Z,5.57
2017-12-22T05:57:04.560Z,5.57
2017-12-22T05:58:04.537Z,5.53
2017-12-22T05:59:04.515Z,5.64
2017-12-22T06:00:04.490Z,5.54
2017-12-22T06:01:04.468Z,5.59
2017-12-22T06:02:04.445Z,5.54
2017-12-22T06:03:04.422Z,5.59
2017-12-22T06:04:04.502Z,5.51
2017-12-22T06:05:04.377Z,5.57
2017-12-22T06:06:04.354Z,5.69
2017-12-22T06:07:04.331Z,5.59
2017-12-22T06:08:04.307Z,5.59
2017-12-22T06:09:04.785Z,5.56
2017-12-22T06:10:04.261Z,5.54
2017-12-22T06:11:04.239Z,5.59
2017-12-22T06:12:04.215Z,5.51
2017-12-22T06:13:04.191Z,5.54
2017-12-22T06:14:04.172Z,5.56
2017-12-22T06:15:04.146Z,5.61
2017-12-22T06:16:04.223Z,5.62
2017-12-22T06:17:04.099Z,5.57
2017-12-22T06:18:04.078Z,5.65
2017-12-22T06:19:04.055Z,5.61
2017-12-22T06:20:04.031Z,5.56
2017-12-22T06:21:04.007Z,5.57
2017-12-22T06:22:03.985Z,5.61
2017-12-22T06:23:03.962Z,5.57
2017-12-22T06:24:03.937Z,5.54
2017-12-22T06:25:03.915Z,5.50
2017-12-22T06:26:03.893Z,5.51
2017-12-22T06:27:03.870Z,5.48
2017-12-22T06:28:03.847Z,5.56
2017-12-22T06:29:04.624Z,5.57
2017-12-22T06:30:03.800Z,5.57
2017-12-22T06:31:03.777Z,5.50
2017-12-22T06:32:03.753Z,5.56
2017-12-22T06:33:03.730Z,5.53
2017-12-22T06:34:03.706Z,5.48
2017-12-22T06:35:03.684Z,5.53
2017-12-22T06:36:03.659Z,5.51
2017-12-22T06:37:03.637Z,5.57
2017-12-22T06:38:03.614Z,5.51
2017-12-22T06:39:03.690Z,5.53
2017-12-22T06:40:03.567Z,5.46
2017-12-22T06:41:03.545Z,5.51
2017-12-22T06:42:03.522Z,5.46
2017-12-22T06:43:03.498Z,5.48
2017-12-22T06:44:03.625Z,5.54
2017-12-22T06:45:03.451Z,5.50
2017-12-22T06:46:03.428Z,5.56
2017-12-22T06:47:03.424Z,5.57
2017-12-22T06:48:03.382Z,5.53
2017-12-22T06:49:03.360Z,5.48
2017-12-22T06:50:03.337Z,5.50
2017-12-22T06:51:03.315Z,5.56
2017-12-22T06:52:03.289Z,5.48
2017-12-22T06:53:03.267Z,5.46
2017-12-22T06:54:03.343Z,5.46
2017-12-22T06:55:03.221Z,5.43
2017-12-22T06:56:03.197Z,5.57
2017-12-22T06:57:03.174Z,5.48
2017-12-22T06:58:03.150Z,5.51
2017-12-22T06:59:03.128Z,5.51
2017-12-22T07:00:03.106Z,5.51
2017-12-22T07:01:03.080Z,5.47
2017-12-22T07:02:03.057Z,5.54
2017-12-22T07:03:03.036Z,5.53
2017-12-22T07:04:03.012Z,5.51
2017-12-22T07:05:03.239Z,5.54
2017-12-22T07:06:02.966Z,5.51
2017-12-22T07:07:02.942Z,5.44
2017-12-22T07:08:02.920Z,5.50
2017-12-22T07:09:02.895Z,5.54
2017-12-22T07:10:02.874Z,5.53
2017-12-22T07:11:02.849Z,5.53
2017-12-22T07:12:02.826Z,5.51
2017-12-22T07:13:02.803Z,5.47
2017-12-22T07:14:02.786Z,5.48
2017-12-22T07:15:02.906Z,5.51
2017-12-22T07:16:02.739Z,5.54
2017-12-22T07:17:02.709Z,5.46
2017-12-22T07:18:02.688Z,5.53
2017-12-22T07:19:02.664Z,5.56
2017-12-22T07:20:02.894Z,5.57
2017-12-22T07:21:02.618Z,5.59
2017-12-22T07:22:02.595Z,5.56
2017-12-22T07:23:02.572Z,5.50
2017-12-22T07:24:02.550Z,5.62
2017-12-22T07:25:02.526Z,5.51
2017-12-22T07:26:02.503Z,5.57
2017-12-22T07:27:02.481Z,5.59
2017-12-22T07:28:02.456Z,5.61
2017-12-22T07:29:02.434Z,5.64
2017-12-22T07:30:02.410Z,5.61
2017-12-22T07:31:02.388Z,5.53
2017-12-22T07:32:02.365Z,5.56
2017-12-22T07:33:02.342Z,5.48
2017-12-22T07:34:02.320Z,5.57
2017-12-22T07:35:02.297Z,5.54
2017-12-22T07:36:02.272Z,5.54
2017-12-22T07:37:02.500Z,5.61
2017-12-22T07:38:02.226Z,5.64
2017-12-22T07:39:02.205Z,5.53
2017-12-22T07:40:02.180Z,5.57
2017-12-22T07:41:02.158Z,5.64
2017-12-22T07:42:02.134Z,5.53
2017-12-22T07:43:02.112Z,5.57
2017-12-22T07:44:02.088Z,5.57
2017-12-22T07:45:02.067Z,5.53
2017-12-22T07:46:02.042Z,5.54
2017-12-22T07:47:02.020Z,5.59
2017-12-22T07:48:02.000Z,5.56
2017-12-22T07:49:01.975Z,5.64
2017-12-22T07:50:01.950Z,5.66
2017-12-22T07:51:01.929Z,5.54
2017-12-22T07:52:01.912Z,5.57
2017-12-22T07:53:01.881Z,5.59
2017-12-22T07:54:01.859Z,5.71
2017-12-22T07:55:01.843Z,5.62
2017-12-22T07:56:01.819Z,5.59
2017-12-22T07:57:01.790Z,5.59
2017-12-22T07:58:01.768Z,5.48
2017-12-22T07:59:01.743Z,5.64
2017-12-22T08:00:01.722Z,5.59
2017-12-22T08:01:01.696Z,5.66
2017-12-22T08:02:01.676Z,5.66
2017-12-22T08:03:01.652Z,5.62
2017-12-22T08:04:02.428Z,5.68
2017-12-22T08:05:01.605Z,5.59
2017-12-22T08:06:01.583Z,5.54
2017-12-22T08:07:01.560Z,5.68
2017-12-22T08:08:01.537Z,5.64
2017-12-22T08:09:01.513Z,5.69
2017-12-22T08:10:01.491Z,5.64
2017-12-22T08:11:01.469Z,5.62
2017-12-22T08:12:01.445Z,5.64
2017-12-22T08:13:01.423Z,5.66
2017-12-22T08:14:01.400Z,5.65
2017-12-22T08:15:01.376Z,5.72
2017-12-22T08:16:01.354Z,5.69
2017-12-22T08:17:01.331Z,5.68
2017-12-22T08:18:01.308Z,5.71
2017-12-22T08:19:01.286Z,5.59
2017-12-22T08:20:01.261Z,5.68
2017-12-22T08:21:01.490Z,5.69
2017-12-22T08:22:01.216Z,5.68
2017-12-22T08:23:01.193Z,5.68
2017-12-22T08:24:01.170Z,5.56
2017-12-22T08:25:01.146Z,5.68
2017-12-22T08:26:01.225Z,5.64
2017-12-22T08:27:01.101Z,5.66
2017-12-22T08:28:01.078Z,5.66
2017-12-22T08:29:01.056Z,5.66
2017-12-22T08:30:01.033Z,5.72
2017-12-22T08:31:01.010Z,5.68
2017-12-22T08:32:00.985Z,5.71
2017-12-22T08:33:00.963Z,5.71
2017-12-22T08:34:00.941Z,5.73
2017-12-22T08:35:00.917Z,5.72
2017-12-22T08:36:00.895Z,5.71
2017-12-22T08:37:00.872Z,5.68
2017-12-22T08:38:00.849Z,5.73
2017-12-22T08:39:00.827Z,5.69
2017-12-22T08:40:00.803Z,5.68
2017-12-22T08:41:00.930Z,5.76
2017-12-22T08:42:00.757Z,5.64
2017-12-22T08:43:00.735Z,5.68
2017-12-22T08:44:00.712Z,5.73
2017-12-22T08:45:00.690Z,5.71
2017-12-22T08:46:00.666Z,5.71
2017-12-22T08:47:00.645Z,5.73
2017-12-22T08:48:00.620Z,5.71
2017-12-22T08:49:00.598Z,5.66
2017-12-22T08:50:00.575Z,5.66
2017-12-22T08:51:00.554Z,5.66
2017-12-22T08:52:00.529Z,5.69
2017-12-22T08:53:00.506Z,5.65
2017-12-22T08:54:00.484Z,5.69
2017-12-22T08:55:00.461Z,5.66
2017-12-22T08:56:00.438Z,5.59
2017-12-22T08:57:00.415Z,5.73
2017-12-22T08:58:00.393Z,5.57
2017-12-22T08:59:00.520Z,5.69
2017-12-22T09:00:00.346Z,5.57
2017-12-22T09:01:00.323Z,5.56
2017-12-22T09:02:00.304Z,5.64
2017-12-22T09:03:00.277Z,5.62
2017-12-22T09:04:00.252Z,5.65
2017-12-22T09:05:00.231Z,5.54
2017-12-22T09:06:00.207Z,5.56
2017-12-22T09:07:00.184Z,5.65
2017-12-22T09:08:00.160Z,5.66
2017-12-22T09:09:00.139Z,5.64
2017-12-22T09:10:00.116Z,5.56
2017-12-22T09:11:00.093Z,5.54
2017-12-22T09:12:00.068Z,5.54
2017-12-22T09:13:00.046Z,5.57
2017-12-22T09:14:00.023Z,5.57
2017-12-22T09:14:59.999Z,5.61
2017-12-22T09:15:59.976Z,5.64
2017-12-22T09:16:59.953Z,5.57
2017-12-22T09:17:59.930Z,5.64
2017-12-22T09:18:59.953Z,5.61
2017-12-22T09:19:59.884Z,5.53
2017-12-22T09:20:59.861Z,5.50
2017-12-22T09:21:59.837Z,5.44
2017-12-22T09:22:59.815Z,5.54
2017-12-22T09:23:59.790Z,5.54
2017-12-22T09:24:59.767Z,5.54
2017-12-22T09:25:59.744Z,5.56
2017-12-22T09:26:59.722Z,5.53
2017-12-22T09:27:59.698Z,5.51
2017-12-22T09:28:59.677Z,5.50
2017-12-22T09:29:59.653Z,5.56
2017-12-22T09:30:59.629Z,5.57
2017-12-22T09:31:59.606Z,5.48
2017-12-22T09:32:59.583Z,5.48
2017-12-22T09:33:59.659Z,5.50
2017-12-22T09:34:59.536Z,5.50
2017-12-22T09:35:59.513Z,5.47
2017-12-22T09:36:59.491Z,5.51
2017-12-22T09:37:59.468Z,5.48
2017-12-22T09:39:00.396Z,5.64
2017-12-22T09:39:59.422Z,5.64
2017-12-22T09:40:59.404Z,5.51
2017-12-22T09:41:59.377Z,5.59
2017-12-22T09:42:59.353Z,5.53
2017-12-22T09:43:59.331Z,5.62
2017-12-22T09:44:59.459Z,5.59
2017-12-22T09:45:59.285Z,5.61
2017-12-22T09:46:59.263Z,5.68
2017-12-22T09:47:59.238Z,5.66
2017-12-22T09:48:59.216Z,5.71
2017-12-22T09:49:59.195Z,5.64
2017-12-22T09:50:59.176Z,5.69
2017-12-22T09:51:59.149Z,5.69
2017-12-22T09:52:59.126Z,5.66
2017-12-22T09:53:59.107Z,5.73
2017-12-22T09:54:59.232Z,5.66
2017-12-22T09:55:59.056Z,5.65
2017-12-22T09:56:59.035Z,5.69
2017-12-22T09:57:59.013Z,5.69
2017-12-22T09:58:58.991Z,5.68
2017-12-22T09:59:58.967Z,5.71
2017-12-22T10:00:59.096Z,5.69
2017-12-22T10:01:58.923Z,5.65
2017-12-22T10:02:58.899Z,5.64
2017-12-22T10:03:58.883Z,5.69
2017-12-22T10:04:58.854Z,5.69
2017-12-22T10:05:58.981Z,5.72
2017-12-22T10:06:58.809Z,5.65
2017-12-22T10:07:58.785Z,5.68
2017-12-22T10:08:58.761Z,5.69
2017-12-22T10:09:58.740Z,5.56
2017-12-22T10:10:58.717Z,5.64
2017-12-22T10:11:58.695Z,5.57
2017-12-22T10:12:58.672Z,5.68
2017-12-22T10:13:58.648Z,5.73
2017-12-22T10:14:58.626Z,5.69
2017-12-22T10:15:58.602Z,5.72
2017-12-22T10:16:58.582Z,5.68
2017-12-22T10:17:58.557Z,5.68
2017-12-22T10:18:58.536Z,5.76
2017-12-22T10:19:58.512Z,5.68
2017-12-22T10:20:58.488Z,5.68
2017-12-22T10:21:58.467Z,5.65
2017-12-22T10:22:58.445Z,5.75
2017-12-22T10:23:58.421Z,5.65
2017-12-22T10:24:58.399Z,5.82
2017-12-22T10:25:58.376Z,5.71
2017-12-22T10:26:58.353Z,5.64
2017-12-22T10:27:58.330Z,5.69
2017-12-22T10:28:58.309Z,5.68
2017-12-22T10:29:58.335Z,5.69
2017-12-22T10:30:58.265Z,5.76
2017-12-22T10:31:58.240Z,5.73
2017-12-22T10:32:58.218Z,5.71
2017-12-22T10:33:58.198Z,5.71
2017-12-22T10:34:58.176Z,5.69
2017-12-22T10:35:58.301Z,5.79
2017-12-22T10:36:58.128Z,5.75
2017-12-22T10:37:58.106Z,5.73
2017-12-22T10:38:58.085Z,5.82
2017-12-22T10:39:58.061Z,5.83
2017-12-22T10:40:58.038Z,5.79
2017-12-22T10:41:58.016Z,5.79
2017-12-22T10:42:57.995Z,5.80
2017-12-22T10:43:57.970Z,5.83
2017-12-22T10:44:57.950Z,5.83
2017-12-22T10:45:57.927Z,5.80
2017-12-22T10:46:57.904Z,5.79
2017-12-22T10:47:57.882Z,5.83
2017-12-22T10:48:57.859Z,5.80
2017-12-22T10:49:57.838Z,5.83
2017-12-22T10:50:57.965Z,5.80
2017-12-22T10:51:57.791Z,5.89
2017-12-22T10:52:57.770Z,5.87
2017-12-22T10:53:57.748Z,5.84
2017-12-22T10:54:57.725Z,5.87
2017-12-22T10:55:58.503Z,5.89
2017-12-22T10:56:57.681Z,5.86
2017-12-22T10:57:57.658Z,5.89
2017-12-22T10:58:57.636Z,5.87
2017-12-22T10:59:57.613Z,5.83
2017-12-22T11:00:57.591Z,5.90
2017-12-22T11:01:57.570Z,5.87
2017-12-22T11:02:57.548Z,5.86
2017-12-22T11:03:57.530Z,5.82
2017-12-22T11:04:57.502Z,5.79
2017-12-22T11:05:57.480Z,5.84
2017-12-22T11:06:57.458Z,5.89
2017-12-22T11:07:57.436Z,5.90
2017-12-22T11:08:57.413Z,5.90
2017-12-22T11:09:57.391Z,5.80
2017-12-22T11:10:57.627Z,5.98
2017-12-22T11:11:57.347Z,5.91
2017-12-22T11:12:57.326Z,5.93
2017-12-22T11:13:57.303Z,5.93
2017-12-22T11:14:57.282Z,5.89
2017-12-22T11:15:57.358Z,5.91
2017-12-22T11:16:57.236Z,5.90
2017-12-22T11:17:57.216Z,5.91
2017-12-22T11:18:57.193Z,6.01
2017-12-22T11:19:57.170Z,5.91
2017-12-22T11:20:57.148Z,6.08
2017-12-22T11:21:57.127Z,6.05
2017-12-22T11:22:57.105Z,5.91
2017-12-22T11:23:57.082Z,5.98
2017-12-22T11:24:57.061Z,6.01
2017-12-22T11:25:57.039Z,6.08
2017-12-22T11:26:57.016Z,5.98
2017-12-22T11:27:56.994Z,6.07
2017-12-22T11:28:56.971Z,6.11
2017-12-22T11:29:56.949Z,6.19
2017-12-22T11:30:56.928Z,6.19
2017-12-22T11:31:56.906Z,6.16
2017-12-22T11:32:56.885Z,6.20
2017-12-22T11:33:56.861Z,6.12
2017-12-22T11:34:56.841Z,6.16
2017-12-22T11:35:56.818Z,6.12
2017-12-22T11:36:56.795Z,6.11
2017-12-22T11:37:56.774Z,6.16
2017-12-22T11:38:56.752Z,6.19
2017-12-22T11:39:56.729Z,6.17
2017-12-22T11:40:56.709Z,6.22
2017-12-22T11:41:56.688Z,6.16
2017-12-22T11:42:56.665Z,6.16
2017-12-22T11:43:56.644Z,6.17
2017-12-22T11:44:56.621Z,6.02
2017-12-22T11:45:56.600Z,6.07
2017-12-22T11:46:56.580Z,6.09
2017-12-22T11:47:56.556Z,6.12
2017-12-22T11:48:56.685Z,6.20
2017-12-22T11:49:56.513Z,6.09
2017-12-22T11:50:56.492Z,6.22
2017-12-22T11:51:56.469Z,6.16
2017-12-22T11:52:56.453Z,6.12
2017-12-22T11:53:56.425Z,6.20
2017-12-22T11:54:56.403Z,6.17
2017-12-22T11:55:56.381Z,6.17
2017-12-22T11:56:56.359Z,6.20
2017-12-22T11:57:56.338Z,6.22
2017-12-22T11:58:56.317Z,6.22
2017-12-22T11:59:56.295Z,6.24
2017-12-22T12:00:56.272Z,6.26
2017-12-22T12:01:56.251Z,6.30
2017-12-22T12:02:56.229Z,6.30
2017-12-22T12:03:56.208Z,6.36
2017-12-22T12:04:56.187Z,6.31
2017-12-22T12:05:56.166Z,6.35
2017-12-22T12:06:56.144Z,6.41
2017-12-22T12:07:56.121Z,6.24
2017-12-22T12:08:56.101Z,6.31
2017-12-22T12:09:56.080Z,6.22
2017-12-22T12:10:56.214Z,6.19
2017-12-22T12:11:56.036Z,6.30
2017-12-22T12:12:56.014Z,6.28
2017-12-22T12:13:55.992Z,6.22
2017-12-22T12:14:56.006Z,6.17
2017-12-22T12:15:56.002Z,6.26
2017-12-22T12:16:55.928Z,6.28
2017-12-22T12:17:55.906Z,6.30
2017-12-22T12:18:55.884Z,6.22
2017-12-22T12:19:55.864Z,6.30
2017-12-22T12:20:55.840Z,6.26
2017-12-22T12:21:55.820Z,6.26
2017-12-22T12:22:55.798Z,6.27
2017-12-22T12:23:55.775Z,6.35
2017-12-22T12:24:55.754Z,6.27
2017-12-22T12:25:55.731Z,6.26
2017-12-22T12:26:55.710Z,6.27
2017-12-22T12:27:55.688Z,6.31
2017-12-22T12:28:56.467Z,6.24
2017-12-22T12:29:55.646Z,6.24
2017-12-22T12:30:55.623Z,6.30
2017-12-22T12:31:55.601Z,6.30
2017-12-22T12:32:55.578Z,6.27
2017-12-22T12:33:55.708Z,6.30
2017-12-22T12:34:55.538Z,6.31
2017-12-22T12:35:55.513Z,6.35
2017-12-22T12:36:55.493Z,6.38
2017-12-22T12:37:55.470Z,6.38
2017-12-22T12:38:55.449Z,6.36
2017-12-22T12:39:55.426Z,6.41
2017-12-22T12:40:55.404Z,6.45
2017-12-22T12:41:55.385Z,6.35
2017-12-22T12:42:55.362Z,6.33
2017-12-22T12:43:55.340Z,6.28
2017-12-22T12:44:55.320Z,6.30
2017-12-22T12:45:55.296Z,6.39
2017-12-22T12:46:55.275Z,6.35
2017-12-22T12:47:55.251Z,6.30
2017-12-22T12:48:55.233Z,6.24
2017-12-22T12:49:55.210Z,6.31
2017-12-22T12:50:55.188Z,6.31
2017-12-22T12:51:55.165Z,6.24
2017-12-22T12:52:55.143Z,6.44
2017-12-22T12:53:55.121Z,6.35
2017-12-22T12:54:55.103Z,6.38
2017-12-22T12:55:55.080Z,6.36
2017-12-22T12:56:55.056Z,6.41
2017-12-22T12:57:55.035Z,6.35
2017-12-22T12:58:55.264Z,6.42
2017-12-22T12:59:54.989Z,6.41
2017-12-22T13:00:54.969Z,6.38
2017-12-22T13:01:54.946Z,6.38
2017-12-22T13:02:54.926Z,6.36
2017-12-22T13:03:54.902Z,6.35
2017-12-22T13:04:54.880Z,6.35
2017-12-22T13:05:54.861Z,6.41
2017-12-22T13:06:54.837Z,6.41
2017-12-22T13:07:54.814Z,6.44
2017-12-22T13:08:54.794Z,6.31
2017-12-22T13:09:54.776Z,6.41
2017-12-22T13:10:54.749Z,6.42
2017-12-22T13:11:54.727Z,6.41
2017-12-22T13:12:54.704Z,6.35
2017-12-22T13:13:54.683Z,6.35
2017-12-22T13:14:54.662Z,6.39
2017-12-22T13:15:54.638Z,6.36
2017-12-22T13:16:54.617Z,6.42
2017-12-22T13:17:54.595Z,6.39